sensor_id;sensor_type;location;lat;lon;timestamp;pressure;altitude;pressure_sealevel;temperature;humidity
23176;BME280;19910;42.652;23.332;2023-01-29T00:00:52;94735.94;;;-0.38;95.02
23176;BME280;19910;42.652;23.332;2023-01-29T00:03:19;94742.66;;;-0.30;95.06
23176;BME280;19910;42.652;23.332;2023-01-29T00:05:45;94738.94;;;-0.29;94.67
23176;BME280;19910;42.652;23.332;2023-01-29T00:08:14;94744.84;;;-0.22;93.89
23176;BME280;19910;42.652;23.332;2023-01-29T00:10:41;94752.13;;;-0.07;93.22
23176;BME280;19910;42.652;23.332;2023-01-29T00:13:08;94753.47;;;0.00;92.04
23176;BME280;19910;42.652;23.332;2023-01-29T00:15:34;94742.81;;;0.00;91.83
23176;BME280;19910;42.652;23.332;2023-01-29T00:18:02;94740.66;;;-0.08;91.47
23176;BME280;19910;42.652;23.332;2023-01-29T00:20:29;94748.69;;;-0.03;91.91
23176;BME280;19910;42.652;23.332;2023-01-29T00:22:56;94760.66;;;-0.05;91.56
23176;BME280;19910;42.652;23.332;2023-01-29T00:25:24;94746.03;;;-0.03;92.08
23176;BME280;19910;42.652;23.332;2023-01-29T00:27:51;94762.53;;;-0.01;92.36
23176;BME280;19910;42.652;23.332;2023-01-29T00:30:18;94756.16;;;0.06;92.00
23176;BME280;19910;42.652;23.332;2023-01-29T00:32:45;94756.13;;;-0.05;91.60
23176;BME280;19910;42.652;23.332;2023-01-29T00:35:12;94768.34;;;-0.09;92.17
23176;BME280;19910;42.652;23.332;2023-01-29T00:37:39;94763.00;;;-0.09;92.13
23176;BME280;19910;42.652;23.332;2023-01-29T00:40:06;94765.69;;;-0.09;91.99
23176;BME280;19910;42.652;23.332;2023-01-29T00:42:35;94758.25;;;-0.07;92.18
23176;BME280;19910;42.652;23.332;2023-01-29T00:45:19;94759.84;;;-0.06;92.18
23176;BME280;19910;42.652;23.332;2023-01-29T00:47:46;94761.44;;;-0.05;92.33
23176;BME280;19910;42.652;23.332;2023-01-29T00:50:13;94758.28;;;-0.02;92.07
23176;BME280;19910;42.652;23.332;2023-01-29T00:52:40;94758.75;;;-0.10;92.40
23176;BME280;19910;42.652;23.332;2023-01-29T00:55:08;94762.75;;;-0.07;92.75
23176;BME280;19910;42.652;23.332;2023-01-29T00:57:37;94764.03;;;-0.20;92.94
23176;BME280;19910;42.652;23.332;2023-01-29T01:00:09;94765.63;;;-0.19;93.57
23176;BME280;19910;42.652;23.332;2023-01-29T01:02:36;94756.00;;;-0.25;93.79
23176;BME280;19910;42.652;23.332;2023-01-29T01:05:20;94765.13;;;-0.16;93.90
23176;BME280;19910;42.652;23.332;2023-01-29T01:07:48;94757.13;;;-0.11;94.08
23176;BME280;19910;42.652;23.332;2023-01-29T01:10:17;94756.88;;;-0.14;94.17
23176;BME280;19910;42.652;23.332;2023-01-29T01:12:48;94768.34;;;-0.09;93.97
23176;BME280;19910;42.652;23.332;2023-01-29T01:15:16;94755.56;;;-0.07;94.03
23176;BME280;19910;42.652;23.332;2023-01-29T01:17:43;94750.22;;;-0.12;94.57
23176;BME280;19910;42.652;23.332;2023-01-29T01:20:11;94749.69;;;-0.14;94.09
23176;BME280;19910;42.652;23.332;2023-01-29T01:22:38;94742.22;;;-0.17;94.03
23176;BME280;19910;42.652;23.332;2023-01-29T01:25:06;94747.56;;;-0.12;94.79
23176;BME280;19910;42.652;23.332;2023-01-29T01:27:33;94756.94;;;-0.04;94.93
23176;BME280;19910;42.652;23.332;2023-01-29T01:30:04;94758.78;;;0.00;94.33
23176;BME280;19910;42.652;23.332;2023-01-29T01:32:31;94748.09;;;-0.10;94.62
23176;BME280;19910;42.652;23.332;2023-01-29T01:34:58;94744.94;;;-0.07;94.59
23176;BME280;19910;42.652;23.332;2023-01-29T01:37:24;94755.63;;;-0.02;94.99
23176;BME280;19910;42.652;23.332;2023-01-29T01:39:51;94753.94;;;-0.13;94.45
23176;BME280;19910;42.652;23.332;2023-01-29T01:42:26;94752.91;;;-0.07;94.25
23176;BME280;19910;42.652;23.332;2023-01-29T01:44:57;94745.94;;;-0.13;94.49
23176;BME280;19910;42.652;23.332;2023-01-29T01:47:34;94754.78;;;-0.07;94.66
23176;BME280;19910;42.652;23.332;2023-01-29T01:50:07;94760.88;;;-0.12;94.51
23176;BME280;19910;42.652;23.332;2023-01-29T01:52:38;94763.25;;;-0.15;94.92
23176;BME280;19910;42.652;23.332;2023-01-29T01:55:08;94767.72;;;-0.21;95.34
23176;BME280;19910;42.652;23.332;2023-01-29T01:57:38;94766.13;;;-0.22;94.99
23176;BME280;19910;42.652;23.332;2023-01-29T02:00:08;94751.47;;;-0.24;95.04
23176;BME280;19910;42.652;23.332;2023-01-29T02:02:40;94767.53;;;-0.14;95.03
23176;BME280;19910;42.652;23.332;2023-01-29T02:05:26;94767.72;;;-0.21;95.57
23176;BME280;19910;42.652;23.332;2023-01-29T02:08:11;94772.00;;;-0.20;95.74
23176;BME280;19910;42.652;23.332;2023-01-29T02:10:57;94775.69;;;-0.26;96.32
23176;BME280;19910;42.652;23.332;2023-01-29T02:13:23;94768.75;;;-0.27;96.44
23176;BME280;19910;42.652;23.332;2023-01-29T02:15:50;94775.16;;;-0.23;96.44
23176;BME280;19910;42.652;23.332;2023-01-29T02:18:20;94774.63;;;-0.25;97.13
23176;BME280;19910;42.652;23.332;2023-01-29T02:21:03;94776.00;;;-0.17;96.88
23176;BME280;19910;42.652;23.332;2023-01-29T02:27:02;94774.66;;;-0.20;98.07
23176;BME280;19910;42.652;23.332;2023-01-29T02:29:40;94778.81;;;-0.34;98.50
23176;BME280;19910;42.652;23.332;2023-01-29T02:32:15;94785.19;;;-0.35;98.82
23176;BME280;19910;42.652;23.332;2023-01-29T02:34:53;94797.50;;;-0.29;99.38
23176;BME280;19910;42.652;23.332;2023-01-29T02:37:49;94792.75;;;-0.22;98.96
23176;BME280;19910;42.652;23.332;2023-01-29T02:40:25;94792.44;;;-0.30;98.97
23176;BME280;19910;42.652;23.332;2023-01-29T02:43:01;94799.81;;;-0.38;99.14
23176;BME280;19910;42.652;23.332;2023-01-29T02:45:33;94800.06;;;-0.44;99.68
23176;BME280;19910;42.652;23.332;2023-01-29T02:48:01;94803.75;;;-0.45;99.68
23176;BME280;19910;42.652;23.332;2023-01-29T02:50:32;94798.44;;;-0.45;100.00
23176;BME280;19910;42.652;23.332;2023-01-29T02:53:06;94808.59;;;-0.37;100.00
23176;BME280;19910;42.652;23.332;2023-01-29T02:55:38;94802.22;;;-0.36;100.00
23176;BME280;19910;42.652;23.332;2023-01-29T02:58:10;94806.25;;;-0.33;100.00
23176;BME280;19910;42.652;23.332;2023-01-29T03:00:42;94799.31;;;-0.34;100.00
23176;BME280;19910;42.652;23.332;2023-01-29T03:03:14;94795.66;;;-0.28;100.00
23176;BME280;19910;42.652;23.332;2023-01-29T03:05:47;94793.69;;;-0.38;100.00
23176;BME280;19910;42.652;23.332;2023-01-29T03:08:22;94796.97;;;-0.26;100.00
23176;BME280;19910;42.652;23.332;2023-01-29T03:11:03;94796.94;;;-0.31;100.00
23176;BME280;19910;42.652;23.332;2023-01-29T03:13:35;94801.50;;;-0.26;100.00
23176;BME280;19910;42.652;23.332;2023-01-29T03:16:09;94799.53;;;-0.41;100.00
23176;BME280;19910;42.652;23.332;2023-01-29T03:18:41;94805.50;;;-0.29;100.00
23176;BME280;19910;42.652;23.332;2023-01-29T03:21:15;94802.22;;;-0.36;99.69
23176;BME280;19910;42.652;23.332;2023-01-29T03:24:02;94810.31;;;-0.21;99.20
23176;BME280;19910;42.652;23.332;2023-01-29T03:26:47;94808.50;;;-0.15;98.54
23176;BME280;19910;42.652;23.332;2023-01-29T03:29:33;94805.59;;;-0.14;97.41
23176;BME280;19910;42.652;23.332;2023-01-29T03:32:20;94806.31;;;-0.23;97.23
23176;BME280;19910;42.652;23.332;2023-01-29T03:34:53;94806.59;;;-0.20;96.04
23176;BME280;19910;42.652;23.332;2023-01-29T03:37:27;94805.88;;;-0.10;95.14
23176;BME280;19910;42.652;23.332;2023-01-29T03:39:55;94801.84;;;-0.13;95.54
23176;BME280;19910;42.652;23.332;2023-01-29T03:42:26;94806.72;;;0.00;94.46
23176;BME280;19910;42.652;23.332;2023-01-29T03:45:00;94807.25;;;-0.03;94.20
23176;BME280;19910;42.652;23.332;2023-01-29T03:47:41;94801.94;;;-0.03;93.89
23176;BME280;19910;42.652;23.332;2023-01-29T03:50:11;94808.25;;;-0.14;94.24
23176;BME280;19910;42.652;23.332;2023-01-29T03:52:44;94800.47;;;-0.20;95.29
23176;BME280;19910;42.652;23.332;2023-01-29T03:55:16;94799.69;;;-0.21;95.57
23176;BME280;19910;42.652;23.332;2023-01-29T03:57:52;94794.00;;;-0.34;96.18
23176;BME280;19910;42.652;23.332;2023-01-29T04:00:25;94809.22;;;-0.25;96.67
23176;BME280;19910;42.652;23.332;2023-01-29T04:03:01;94809.81;;;-0.18;96.82
23176;BME280;19910;42.652;23.332;2023-01-29T04:05:33;94799.16;;;-0.18;97.45
23176;BME280;19910;42.652;23.332;2023-01-29T04:08:07;94809.00;;;-0.18;97.24
23176;BME280;19910;42.652;23.332;2023-01-29T04:10:38;94804.00;;;-0.15;97.54
23176;BME280;19910;42.652;23.332;2023-01-29T04:13:10;94810.81;;;-0.24;97.54
23176;BME280;19910;42.652;23.332;2023-01-29T04:15:43;94818.84;;;-0.19;97.81
23176;BME280;19910;42.652;23.332;2023-01-29T04:18:12;94811.31;;;-0.27;98.14
23176;BME280;19910;42.652;23.332;2023-01-29T04:20:39;94814.47;;;-0.35;98.24
23176;BME280;19910;42.652;23.332;2023-01-29T04:23:19;94810.22;;;-0.36;98.67
23176;BME280;19910;42.652;23.332;2023-01-29T04:25:52;94811.31;;;-0.32;98.44
23176;BME280;19910;42.652;23.332;2023-01-29T04:28:23;94819.06;;;-0.25;98.00
23176;BME280;19910;42.652;23.332;2023-01-29T04:30:53;94823.00;;;-0.33;98.28
23176;BME280;19910;42.652;23.332;2023-01-29T04:33:30;94816.59;;;-0.37;98.49
23176;BME280;19910;42.652;23.332;2023-01-29T04:36:10;94814.72;;;-0.37;98.24
23176;BME280;19910;42.652;23.332;2023-01-29T04:38:49;94820.91;;;-0.31;97.82
23176;BME280;19910;42.652;23.332;2023-01-29T04:41:28;94826.22;;;-0.31;97.96
23176;BME280;19910;42.652;23.332;2023-01-29T04:44:00;94827.22;;;-0.37;98.27
23176;BME280;19910;42.652;23.332;2023-01-29T04:46:33;94827.22;;;-0.37;98.29
23176;BME280;19910;42.652;23.332;2023-01-29T04:49:12;94820.84;;;-0.36;97.74
23176;BME280;19910;42.652;23.332;2023-01-29T04:51:49;94822.47;;;-0.35;97.70
23176;BME280;19910;42.652;23.332;2023-01-29T04:54:23;94823.75;;;-0.38;98.07
23176;BME280;19910;42.652;23.332;2023-01-29T04:56:57;94822.72;;;-0.37;97.66
23176;BME280;19910;42.652;23.332;2023-01-29T04:59:29;94832.13;;;-0.24;97.61
23176;BME280;19910;42.652;23.332;2023-01-29T05:01:59;94832.13;;;-0.24;96.72
23176;BME280;19910;42.652;23.332;2023-01-29T05:04:29;94830.25;;;-0.28;96.94
23176;BME280;19910;42.652;23.332;2023-01-29T05:07:00;94833.72;;;-0.28;96.75
23176;BME280;19910;42.652;23.332;2023-01-29T05:09:29;94822.56;;;-0.20;96.85
23176;BME280;19910;42.652;23.332;2023-01-29T05:11:56;94837.50;;;-0.19;96.37
23176;BME280;19910;42.652;23.332;2023-01-29T05:14:23;94839.28;;;-0.29;96.37
23176;BME280;19910;42.652;23.332;2023-01-29T05:16:55;94836.94;;;-0.21;96.05
23176;BME280;19910;42.652;23.332;2023-01-29T05:19:23;94841.25;;;-0.15;95.72
23176;BME280;19910;42.652;23.332;2023-01-29T05:21:52;94841.41;;;-0.26;96.19
23176;BME280;19910;42.652;23.332;2023-01-29T05:24:21;94836.88;;;-0.31;97.07
23176;BME280;19910;42.652;23.332;2023-01-29T05:26:50;94839.34;;;-0.19;96.35
23176;BME280;19910;42.652;23.332;2023-01-29T05:29:35;94842.06;;;-0.14;95.93
23176;BME280;19910;42.652;23.332;2023-01-29T05:32:02;94840.97;;;-0.13;96.18
23176;BME280;19910;42.652;23.332;2023-01-29T05:34:29;94849.94;;;-0.24;95.96
23176;BME280;19910;42.652;23.332;2023-01-29T05:36:57;94850.19;;;-0.26;96.64
23176;BME280;19910;42.652;23.332;2023-01-29T05:39:24;94860.13;;;-0.16;96.51
23176;BME280;19910;42.652;23.332;2023-01-29T05:41:51;94856.63;;;-0.22;96.27
23176;BME280;19910;42.652;23.332;2023-01-29T05:44:17;94854.00;;;-0.17;96.46
23176;BME280;19910;42.652;23.332;2023-01-29T05:46:44;94862.03;;;-0.12;96.10
23176;BME280;19910;42.652;23.332;2023-01-29T05:49:11;94859.41;;;-0.07;96.22
23176;BME280;19910;42.652;23.332;2023-01-29T05:51:38;94855.38;;;-0.14;96.14
23176;BME280;19910;42.652;23.332;2023-01-29T05:54:06;94863.38;;;-0.09;96.48
23176;BME280;19910;42.652;23.332;2023-01-29T05:56:33;94863.56;;;-0.21;96.97
23176;BME280;19910;42.652;23.332;2023-01-29T05:58:59;94853.91;;;-0.27;96.82
23176;BME280;19910;42.652;23.332;2023-01-29T06:01:26;94856.06;;;-0.29;97.15
23176;BME280;19910;42.652;23.332;2023-01-29T06:03:53;94863.97;;;-0.34;97.48
23176;BME280;19910;42.652;23.332;2023-01-29T06:06:20;94871.72;;;-0.32;97.44
23176;BME280;19910;42.652;23.332;2023-01-29T06:08:46;94874.63;;;-0.34;97.82
23176;BME280;19910;42.652;23.332;2023-01-29T06:11:15;94873.69;;;-0.18;97.96
23176;BME280;19910;42.652;23.332;2023-01-29T06:13:43;94875.94;;;-0.05;98.12
23176;BME280;19910;42.652;23.332;2023-01-29T06:16:11;94886.53;;;-0.10;97.12
23176;BME280;19910;42.652;23.332;2023-01-29T06:18:39;94889.25;;;-0.05;97.45
23176;BME280;19910;42.652;23.332;2023-01-29T06:21:08;94893.00;;;-0.01;97.22
23176;BME280;19910;42.652;23.332;2023-01-29T06:23:36;94890.84;;;-0.04;96.98
23176;BME280;19910;42.652;23.332;2023-01-29T06:26:04;94895.06;;;-0.08;97.62
23176;BME280;19910;42.652;23.332;2023-01-29T06:28:33;94899.91;;;0.00;97.74
23176;BME280;19910;42.652;23.332;2023-01-29T06:31:01;94906.31;;;-0.01;97.18
23176;BME280;19910;42.652;23.332;2023-01-29T06:33:28;94904.91;;;-0.08;97.11
23176;BME280;19910;42.652;23.332;2023-01-29T06:35:55;94914.75;;;-0.09;97.11
23176;BME280;19910;42.652;23.332;2023-01-29T06:38:23;94917.03;;;0.10;97.15
23176;BME280;19910;42.652;23.332;2023-01-29T06:40:50;94918.66;;;0.16;96.87
23176;BME280;19910;42.652;23.332;2023-01-29T06:43:17;94905.88;;;0.13;96.91
23176;BME280;19910;42.652;23.332;2023-01-29T06:45:49;94917.41;;;0.23;96.46
23176;BME280;19910;42.652;23.332;2023-01-29T06:48:17;94909.16;;;0.25;96.54
23176;BME280;19910;42.652;23.332;2023-01-29T06:50:44;94911.78;;;0.20;95.90
23176;BME280;19910;42.652;23.332;2023-01-29T06:53:11;94922.94;;;0.17;96.14
23176;BME280;19910;42.652;23.332;2023-01-29T06:55:38;94928.38;;;0.27;96.27
23176;BME280;19910;42.652;23.332;2023-01-29T06:58:05;94928.94;;;0.34;96.43
23176;BME280;19910;42.652;23.332;2023-01-29T07:00:32;94930.50;;;0.30;95.27
23176;BME280;19910;42.652;23.332;2023-01-29T07:03:01;94924.53;;;0.55;94.71
23176;BME280;19910;42.652;23.332;2023-01-29T07:05:28;94918.31;;;0.39;95.46
23176;BME280;19910;42.652;23.332;2023-01-29T07:07:55;94923.19;;;0.52;94.90
23176;BME280;19910;42.652;23.332;2023-01-29T07:10:22;94924.41;;;0.34;94.28
23176;BME280;19910;42.652;23.332;2023-01-29T07:12:49;94932.16;;;0.36;95.24
23176;BME280;19910;42.652;23.332;2023-01-29T07:15:16;94938.50;;;0.30;95.04
23176;BME280;19910;42.652;23.332;2023-01-29T07:17:54;94939.47;;;0.56;95.07
23176;BME280;19910;42.652;23.332;2023-01-29T07:20:23;94946.44;;;0.62;94.61
23176;BME280;19910;42.652;23.332;2023-01-29T07:22:50;94950.66;;;0.53;94.73
23176;BME280;19910;42.652;23.332;2023-01-29T07:25:17;94941.78;;;1.67;100.00
23176;BME280;19910;42.652;23.332;2023-01-29T07:27:43;94940.50;;;1.95;99.50
23176;BME280;19910;42.652;23.332;2023-01-29T07:30:11;94940.25;;;2.52;99.21
23176;BME280;19910;42.652;23.332;2023-01-29T07:32:38;94948.19;;;1.56;90.83
23176;BME280;19910;42.652;23.332;2023-01-29T07:35:05;94946.44;;;1.14;92.89
23176;BME280;19910;42.652;23.332;2023-01-29T07:37:34;94948.69;;;0.80;92.83
23176;BME280;19910;42.652;23.332;2023-01-29T07:40:00;94946.75;;;0.65;94.25
23176;BME280;19910;42.652;23.332;2023-01-29T07:42:29;94954.88;;;0.91;94.40
23176;BME280;19910;42.652;23.332;2023-01-29T07:44:56;94954.44;;;1.09;93.32
23176;BME280;19910;42.652;23.332;2023-01-29T07:47:22;94950.50;;;0.75;92.78
23176;BME280;19910;42.652;23.332;2023-01-29T07:49:49;94963.75;;;1.06;92.81
23176;BME280;19910;42.652;23.332;2023-01-29T07:52:16;94964.47;;;0.97;91.93
23176;BME280;19910;42.652;23.332;2023-01-29T07:54:44;94964.44;;;0.87;92.53
23176;BME280;19910;42.652;23.332;2023-01-29T07:57:11;94960.25;;;1.01;92.80
23176;BME280;19910;42.652;23.332;2023-01-29T07:59:37;94962.66;;;1.02;92.80
23176;BME280;19910;42.652;23.332;2023-01-29T08:02:04;94964.25;;;1.03;92.95
23176;BME280;19910;42.652;23.332;2023-01-29T08:04:31;94968.25;;;1.01;93.51
23176;BME280;19910;42.652;23.332;2023-01-29T08:06:58;94970.34;;;0.94;93.14
23176;BME280;19910;42.652;23.332;2023-01-29T08:09:25;94968.88;;;0.71;93.42
23176;BME280;19910;42.652;23.332;2023-01-29T08:11:53;94966.81;;;0.78;93.22
23176;BME280;19910;42.652;23.332;2023-01-29T08:14:19;94972.63;;;0.75;94.22
23176;BME280;19910;42.652;23.332;2023-01-29T08:16:46;94970.69;;;0.60;94.29
23176;BME280;19910;42.652;23.332;2023-01-29T08:19:13;94965.78;;;0.47;94.63
23176;BME280;19910;42.652;23.332;2023-01-29T08:21:40;94974.34;;;0.49;95.71
23176;BME280;19910;42.652;23.332;2023-01-29T08:24:07;94972.69;;;0.43;95.85
23176;BME280;19910;42.652;23.332;2023-01-29T08:26:34;94976.44;;;0.47;95.57
23176;BME280;19910;42.652;23.332;2023-01-29T08:29:02;94972.28;;;0.61;94.92
23176;BME280;19910;42.652;23.332;2023-01-29T08:31:29;94980.78;;;0.53;94.05
23176;BME280;19910;42.652;23.332;2023-01-29T08:33:55;94980.19;;;0.46;94.06
23176;BME280;19910;42.652;23.332;2023-01-29T08:36:23;94975.88;;;0.40;92.68
23176;BME280;19910;42.652;23.332;2023-01-29T08:38:50;94978.81;;;0.39;93.13
23176;BME280;19910;42.652;23.332;2023-01-29T08:41:16;94986.53;;;0.40;93.22
23176;BME280;19910;42.652;23.332;2023-01-29T08:43:43;94996.72;;;0.48;92.43
23176;BME280;19910;42.652;23.332;2023-01-29T08:46:12;94996.47;;;0.55;92.92
23176;BME280;19910;42.652;23.332;2023-01-29T08:48:38;94995.16;;;0.57;92.71
23176;BME280;19910;42.652;23.332;2023-01-29T08:51:05;94997.25;;;0.87;91.38
23176;BME280;19910;42.652;23.332;2023-01-29T08:53:32;94988.72;;;0.90;91.18
23176;BME280;19910;42.652;23.332;2023-01-29T08:55:59;94991.09;;;0.87;90.05
23176;BME280;19910;42.652;23.332;2023-01-29T08:58:26;95004.84;;;0.68;90.35
23176;BME280;19910;42.652;23.332;2023-01-29T09:00:52;95009.66;;;0.71;90.64
23176;BME280;19910;42.652;23.332;2023-01-29T09:03:20;95006.00;;;0.83;91.03
23176;BME280;19910;42.652;23.332;2023-01-29T09:05:47;95009.59;;;0.61;91.03
23176;BME280;19910;42.652;23.332;2023-01-29T09:08:14;95008.31;;;0.69;91.37
23176;BME280;19910;42.652;23.332;2023-01-29T09:10:41;95006.44;;;0.69;91.11
23176;BME280;19910;42.652;23.332;2023-01-29T09:13:07;95002.22;;;0.74;91.43
23176;BME280;19910;42.652;23.332;2023-01-29T09:15:34;95013.56;;;0.96;91.00
23176;BME280;19910;42.652;23.332;2023-01-29T09:18:02;95003.41;;;0.93;90.18
23176;BME280;19910;42.652;23.332;2023-01-29T09:20:31;95009.56;;;0.98;89.04
23176;BME280;19910;42.652;23.332;2023-01-29T09:23:03;95007.94;;;0.92;89.29
23176;BME280;19910;42.652;23.332;2023-01-29T09:25:30;95005.53;;;0.96;89.13
23176;BME280;19910;42.652;23.332;2023-01-29T09:27:57;95005.50;;;0.86;89.14
23176;BME280;19910;42.652;23.332;2023-01-29T09:30:24;95004.97;;;0.89;89.32
23176;BME280;19910;42.652;23.332;2023-01-29T09:32:50;95002.22;;;0.74;89.30
23176;BME280;19910;42.652;23.332;2023-01-29T09:35:17;94999.94;;;0.55;90.21
23176;BME280;19910;42.652;23.332;2023-01-29T09:37:47;94996.44;;;0.82;89.87
23176;BME280;19910;42.652;23.332;2023-01-29T09:40:23;95003.38;;;0.88;89.61
23176;BME280;19910;42.652;23.332;2023-01-29T09:42:55;95000.63;;;0.73;90.39
23176;BME280;19910;42.652;23.332;2023-01-29T09:45:24;94994.81;;;0.86;90.40
23176;BME280;19910;42.652;23.332;2023-01-29T09:47:58;94993.22;;;0.85;89.65
23176;BME280;19910;42.652;23.332;2023-01-29T09:50:29;94992.91;;;0.76;89.78
23176;BME280;19910;42.652;23.332;2023-01-29T09:53:03;94980.56;;;1.07;89.13
23176;BME280;19910;42.652;23.332;2023-01-29T09:55:37;94991.31;;;1.22;87.97
23176;BME280;19910;42.652;23.332;2023-01-29T09:58:11;94977.97;;;0.75;89.33
23176;BME280;19910;42.652;23.332;2023-01-29T10:00:44;94989.03;;;0.99;88.76
23176;BME280;19910;42.652;23.332;2023-01-29T10:03:22;94987.97;;;0.95;89.39
23176;BME280;19910;42.652;23.332;2023-01-29T10:06:07;94982.94;;;1.03;88.72
23176;BME280;19910;42.652;23.332;2023-01-29T10:09:02;94978.88;;;0.96;89.48
23176;BME280;19910;42.652;23.332;2023-01-29T10:11:41;94980.69;;;0.80;89.46
23176;BME280;19910;42.652;23.332;2023-01-29T10:14:17;94970.78;;;0.76;89.85
23176;BME280;19910;42.652;23.332;2023-01-29T10:16:58;94969.56;;;0.51;90.82
23176;BME280;19910;42.652;23.332;2023-01-29T10:19:43;94974.50;;;0.75;89.95
23176;BME280;19910;42.652;23.332;2023-01-29T10:22:40;94968.06;;;0.65;89.91
23176;BME280;19910;42.652;23.332;2023-01-29T10:25:14;94962.38;;;0.52;91.17
23176;BME280;19910;42.652;23.332;2023-01-29T10:27:46;94965.84;;;0.57;91.26
23176;BME280;19910;42.652;23.332;2023-01-29T10:30:22;94966.38;;;0.54;90.91
23176;BME280;19910;42.652;23.332;2023-01-29T10:32:53;94960.53;;;0.57;91.20
23176;BME280;19910;42.652;23.332;2023-01-29T10:35:22;94961.66;;;0.66;91.01
23176;BME280;19910;42.652;23.332;2023-01-29T10:37:52;94963.22;;;0.62;90.88
23176;BME280;19910;42.652;23.332;2023-01-29T10:40:23;94961.13;;;0.69;91.03
23176;BME280;19910;42.652;23.332;2023-01-29T10:42:59;94953.59;;;0.56;91.22
23176;BME280;19910;42.652;23.332;2023-01-29T10:45:34;94955.94;;;0.48;91.51
23176;BME280;19910;42.652;23.332;2023-01-29T10:51:17;94958.44;;;0.64;91.34
23176;BME280;19910;42.652;23.332;2023-01-29T10:53:55;94959.06;;;0.77;91.63
23176;BME280;19910;42.652;23.332;2023-01-29T10:56:39;94954.22;;;0.74;90.79
23176;BME280;19910;42.652;23.332;2023-01-29T10:59:23;94955.19;;;0.57;91.40
23176;BME280;19910;42.652;23.332;2023-01-29T11:01:56;94945.06;;;0.54;91.20
23176;BME280;19910;42.652;23.332;2023-01-29T11:04:24;94951.78;;;0.62;91.37
23176;BME280;19910;42.652;23.332;2023-01-29T11:06:52;94952.97;;;0.81;91.24
23176;BME280;19910;42.652;23.332;2023-01-29T11:09:26;94948.47;;;0.97;90.54
23176;BME280;19910;42.652;23.332;2023-01-29T11:12:00;94941.22;;;0.82;90.51
23176;BME280;19910;42.652;23.332;2023-01-29T11:14:32;94945.69;;;0.71;90.68
23176;BME280;19910;42.652;23.332;2023-01-29T11:17:04;94933.50;;;0.86;90.68
23176;BME280;19910;42.652;23.332;2023-01-29T11:19:36;94942.31;;;0.86;90.51
23176;BME280;19910;42.652;23.332;2023-01-29T11:22:03;94936.13;;;0.76;90.65
23176;BME280;19910;42.652;23.332;2023-01-29T11:24:33;94933.56;;;1.01;90.33
23176;BME280;19910;42.652;23.332;2023-01-29T11:27:13;94924.81;;;1.11;90.70
23176;BME280;19910;42.652;23.332;2023-01-29T11:29:43;94927.72;;;1.04;89.92
23176;BME280;19910;42.652;23.332;2023-01-29T11:32:12;94920.31;;;1.16;89.92
23176;BME280;19910;42.652;23.332;2023-01-29T11:34:57;94919.81;;;1.29;89.16
23176;BME280;19910;42.652;23.332;2023-01-29T11:37:31;94915.47;;;1.13;88.43
23176;BME280;19910;42.652;23.332;2023-01-29T11:39:58;94914.47;;;1.29;88.36
23176;BME280;19910;42.652;23.332;2023-01-29T11:42:30;94905.94;;;1.27;88.45
23176;BME280;19910;42.652;23.332;2023-01-29T11:44:59;94904.38;;;1.36;87.91
23176;BME280;19910;42.652;23.332;2023-01-29T11:47:27;94890.28;;;1.82;87.04
23176;BME280;19910;42.652;23.332;2023-01-29T11:49:56;94888.13;;;2.24;85.85
23176;BME280;19910;42.652;23.332;2023-01-29T11:52:25;94894.03;;;1.96;85.58
23176;BME280;19910;42.652;23.332;2023-01-29T11:54:56;94888.94;;;1.59;86.57
23176;BME280;19910;42.652;23.332;2023-01-29T11:57:29;94895.31;;;1.42;87.50
23176;BME280;19910;42.652;23.332;2023-01-29T11:59:59;94893.09;;;1.24;87.91
23176;BME280;19910;42.652;23.332;2023-01-29T12:02:32;94884.66;;;1.48;87.74
23176;BME280;19910;42.652;23.332;2023-01-29T12:05:03;94885.19;;;1.60;87.31
23176;BME280;19910;42.652;23.332;2023-01-29T12:07:31;94892.16;;;1.76;87.19
23176;BME280;19910;42.652;23.332;2023-01-29T12:09:59;94890.50;;;1.45;87.29
23176;BME280;19910;42.652;23.332;2023-01-29T12:12:31;94893.16;;;1.39;88.63
23176;BME280;19910;42.652;23.332;2023-01-29T12:15:16;94876.63;;;1.53;87.46
23176;BME280;19910;42.652;23.332;2023-01-29T12:17:50;94886.16;;;1.18;88.42
23176;BME280;19910;42.652;23.332;2023-01-29T12:20:24;94888.34;;;1.31;88.46
23176;BME280;19910;42.652;23.332;2023-01-29T12:22:58;94884.66;;;1.48;87.72
23176;BME280;19910;42.652;23.332;2023-01-29T12:25:37;94890.13;;;1.11;88.08
23176;BME280;19910;42.652;23.332;2023-01-29T12:28:14;94889.41;;;1.30;88.15
23176;BME280;19910;42.652;23.332;2023-01-29T12:30:54;94889.88;;;1.07;87.88
23176;BME280;19910;42.652;23.332;2023-01-29T12:33:36;94896.09;;;1.33;88.64
23176;BME280;19910;42.652;23.332;2023-01-29T12:36:10;94895.53;;;1.31;87.69
23176;BME280;19910;42.652;23.332;2023-01-29T12:38:39;94894.66;;;1.10;88.50
23176;BME280;19910;42.652;23.332;2023-01-29T12:41:17;94888.06;;;1.23;87.64
23176;BME280;19910;42.652;23.332;2023-01-29T12:43:51;94898.97;;;1.26;87.92
23176;BME280;19910;42.652;23.332;2023-01-29T12:46:22;94895.28;;;1.37;87.72
23176;BME280;19910;42.652;23.332;2023-01-29T12:48:53;94892.63;;;1.32;87.54
23176;BME280;19910;42.652;23.332;2023-01-29T12:51:24;94891.00;;;1.21;87.86
23176;BME280;19910;42.652;23.332;2023-01-29T12:53:58;94903.28;;;1.32;88.20
23176;BME280;19910;42.652;23.332;2023-01-29T12:56:28;94896.31;;;1.21;87.55
23176;BME280;19910;42.652;23.332;2023-01-29T12:59:00;94895.78;;;1.24;88.38
23176;BME280;19910;42.652;23.332;2023-01-29T13:01:32;94895.19;;;1.12;88.84
23176;BME280;19910;42.652;23.332;2023-01-29T13:04:03;94886.78;;;1.46;88.17
23176;BME280;19910;42.652;23.332;2023-01-29T13:06:35;94883.72;;;1.06;88.24
23176;BME280;19910;42.652;23.332;2023-01-29T13:09:10;94892.00;;;1.05;88.13
23176;BME280;19910;42.652;23.332;2023-01-29T13:11:42;94887.28;;;1.37;87.93
23176;BME280;19910;42.652;23.332;2023-01-29T13:14:19;94881.41;;;1.30;88.17
23176;BME280;19910;42.652;23.332;2023-01-29T13:16:50;94869.59;;;1.11;87.90
23176;BME280;19910;42.652;23.332;2023-01-29T13:19:24;94878.09;;;0.98;88.03
23176;BME280;19910;42.652;23.332;2023-01-29T13:21:54;94883.38;;;0.88;88.46